Terminal Aerodrome Forecast
Issued by NWS Charleston, WV

Current Version | Previous Version | Graphics & Text | Print | Product List | Glossary On
Versions: 1 2 3 4 5 6 7 8 9 10 11 12 13 14 15 16 17 18 19 20 21 22 23 24 25
000
FTUS41 KRLX 300243 AAA
TAFCRW
TAF AMD
KCRW 300243Z 3003/3024 19005KT P6SM VCTS BKN060CB
      TEMPO 3003/3004 2SM TSRA BKN025CB
     FM300400 20004KT 4SM SHRA BR BKN045
     FM300800 22005KT 3SM BR BKN035
     FM301300 22005KT P6SM BKN025
     FM301600 23007KT P6SM BKN035
     FM301700 23007KT P6SM VCTS BKN045CB=

USA.gov is the U.S. government's official web portal to all federal, state and local government web resources and services.